To NAV CANADA Home Page Login to a new session Search on AWWS site Feedback and Comments Disclaimer Vers la page française équivalente Tips FAQ What's new on the site To the Forecasts and Observations / NOTAM section To "File a Flight Plan" website Publications and other links Update of the User's profile FIC Telephone Numbers My Weather Data Folder Route Weather Data Regional Weather Data Local Weather Data To the Forecasts and Observations / NOTAM section
Request Generated 10/22/2016 at 16:02:57 UTC . Weather information available at that time is displayed.



METAR CYDA 221500Z 25006KT 210V270 15SM -SN OVC067 M06/M09 A2990 RMK
AS8 SLP153=
METAR CYDA 221400Z 24007G15KT 15SM FEW008 BKN067 M06/M09 A2988 RMK
ST1AS5 47005 CLIMAT -2.6/-5.7/0.8 CM/0.8 MWE SLP145=
LWIS CYDA 221300Z AUTO 24009G16KT 220V280 M05/M09 A2985=

TAF CYDA 221538Z 2216/2223 25008KT P6SM SCT030 BKN060 TEMPO 2216/2221
5SM -SN BKN020
FM222100 24005KT P6SM BKN050 OVC100 TEMPO 2221/2223 SCT050 BKN100
Your time UTC time
Weather data provided by Environment Canada and NAV CANADA